sensor_id;sensor_type;location;lat;lon;timestamp;temperature;humidity
55313;DHT22;46892;45.668;11.756;2022-11-12T00:00:37;8.90;84.30
55313;DHT22;46892;45.668;11.756;2022-11-12T00:03:03;8.80;84.10
55313;DHT22;46892;45.668;11.756;2022-11-12T00:05:29;8.80;84.20
55313;DHT22;46892;45.668;11.756;2022-11-12T00:07:55;8.90;83.40
55313;DHT22;46892;45.668;11.756;2022-11-12T00:10:21;8.80;83.60
55313;DHT22;46892;45.668;11.756;2022-11-12T00:12:47;8.80;83.40
55313;DHT22;46892;45.668;11.756;2022-11-12T00:15:12;8.90;83.20
55313;DHT22;46892;45.668;11.756;2022-11-12T00:17:38;8.80;83.80
55313;DHT22;46892;45.668;11.756;2022-11-12T00:20:04;8.90;84.00
55313;DHT22;46892;45.668;11.756;2022-11-12T00:22:31;9.00;82.80
55313;DHT22;46892;45.668;11.756;2022-11-12T00:24:56;8.90;83.80
55313;DHT22;46892;45.668;11.756;2022-11-12T00:27:22;9.10;83.60
55313;DHT22;46892;45.668;11.756;2022-11-12T00:29:48;9.20;83.00
55313;DHT22;46892;45.668;11.756;2022-11-12T00:32:14;9.40;82.70
55313;DHT22;46892;45.668;11.756;2022-11-12T00:34:39;9.50;82.30
55313;DHT22;46892;45.668;11.756;2022-11-12T00:37:05;9.60;81.90
55313;DHT22;46892;45.668;11.756;2022-11-12T00:39:31;9.50;81.20
55313;DHT22;46892;45.668;11.756;2022-11-12T00:41:57;9.40;81.50
55313;DHT22;46892;45.668;11.756;2022-11-12T00:44:23;9.30;82.70
55313;DHT22;46892;45.668;11.756;2022-11-12T00:46:49;9.30;83.20
55313;DHT22;46892;45.668;11.756;2022-11-12T00:49:14;9.20;83.50
55313;DHT22;46892;45.668;11.756;2022-11-12T00:51:40;9.00;83.70
55313;DHT22;46892;45.668;11.756;2022-11-12T00:54:06;8.90;83.40
55313;DHT22;46892;45.668;11.756;2022-11-12T00:56:34;8.90;84.00
55313;DHT22;46892;45.668;11.756;2022-11-12T00:59:00;8.90;83.70
55313;DHT22;46892;45.668;11.756;2022-11-12T01:01:26;9.00;83.00
55313;DHT22;46892;45.668;11.756;2022-11-12T01:03:52;8.90;83.60
55313;DHT22;46892;45.668;11.756;2022-11-12T01:06:20;8.90;84.00
55313;DHT22;46892;45.668;11.756;2022-11-12T01:08:47;8.80;84.10
55313;DHT22;46892;45.668;11.756;2022-11-12T01:11:19;9.00;83.40
55313;DHT22;46892;45.668;11.756;2022-11-12T01:13:46;9.10;82.50
55313;DHT22;46892;45.668;11.756;2022-11-12T01:16:34;9.10;82.70
55313;DHT22;46892;45.668;11.756;2022-11-12T01:19:01;9.10;83.00
55313;DHT22;46892;45.668;11.756;2022-11-12T01:21:29;9.00;83.40
55313;DHT22;46892;45.668;11.756;2022-11-12T01:23:57;9.00;83.00
55313;DHT22;46892;45.668;11.756;2022-11-12T01:26:24;8.90;82.80
55313;DHT22;46892;45.668;11.756;2022-11-12T01:28:53;8.80;82.50
55313;DHT22;46892;45.668;11.756;2022-11-12T01:31:31;8.80;82.20
55313;DHT22;46892;45.668;11.756;2022-11-12T01:33:59;8.80;82.90
55313;DHT22;46892;45.668;11.756;2022-11-12T01:36:27;8.80;83.10
55313;DHT22;46892;45.668;11.756;2022-11-12T01:38:54;8.70;82.60
55313;DHT22;46892;45.668;11.756;2022-11-12T01:41:22;8.70;83.20
55313;DHT22;46892;45.668;11.756;2022-11-12T01:44:06;8.80;83.40
55313;DHT22;46892;45.668;11.756;2022-11-12T01:46:33;8.80;84.00
55313;DHT22;46892;45.668;11.756;2022-11-12T01:49:02;8.80;83.20
55313;DHT22;46892;45.668;11.756;2022-11-12T01:51:34;8.70;82.80
55313;DHT22;46892;45.668;11.756;2022-11-12T01:54:03;8.90;83.50
55313;DHT22;46892;45.668;11.756;2022-11-12T01:56:31;9.00;82.70
55313;DHT22;46892;45.668;11.756;2022-11-12T01:59:11;8.90;82.70
55313;DHT22;46892;45.668;11.756;2022-11-12T02:01:38;8.80;82.30
55313;DHT22;46892;45.668;11.756;2022-11-12T02:04:03;8.80;82.10
55313;DHT22;46892;45.668;11.756;2022-11-12T02:06:29;8.80;82.40
55313;DHT22;46892;45.668;11.756;2022-11-12T02:08:55;8.80;82.90
55313;DHT22;46892;45.668;11.756;2022-11-12T02:11:22;8.60;83.00
55313;DHT22;46892;45.668;11.756;2022-11-12T02:13:50;8.60;83.00
55313;DHT22;46892;45.668;11.756;2022-11-12T02:16:24;8.50;83.00
55313;DHT22;46892;45.668;11.756;2022-11-12T02:18:51;8.40;83.30
55313;DHT22;46892;45.668;11.756;2022-11-12T02:21:21;8.50;83.30
55313;DHT22;46892;45.668;11.756;2022-11-12T02:23:54;8.30;83.40
55313;DHT22;46892;45.668;11.756;2022-11-12T02:26:21;8.30;83.70
55313;DHT22;46892;45.668;11.756;2022-11-12T02:28:46;8.10;83.90
55313;DHT22;46892;45.668;11.756;2022-11-12T02:31:12;8.10;84.50
55313;DHT22;46892;45.668;11.756;2022-11-12T02:33:37;8.10;84.30
55313;DHT22;46892;45.668;11.756;2022-11-12T02:36:03;8.20;84.30
55313;DHT22;46892;45.668;11.756;2022-11-12T02:38:29;8.20;84.40
55313;DHT22;46892;45.668;11.756;2022-11-12T02:40:54;8.30;84.20
55313;DHT22;46892;45.668;11.756;2022-11-12T02:43:20;8.40;83.90
55313;DHT22;46892;45.668;11.756;2022-11-12T02:45:46;8.30;83.00
55313;DHT22;46892;45.668;11.756;2022-11-12T02:48:11;8.40;82.90
55313;DHT22;46892;45.668;11.756;2022-11-12T02:50:37;8.50;83.40
55313;DHT22;46892;45.668;11.756;2022-11-12T02:53:03;8.50;83.50
55313;DHT22;46892;45.668;11.756;2022-11-12T02:55:28;8.40;82.40
55313;DHT22;46892;45.668;11.756;2022-11-12T02:57:58;8.30;82.80
55313;DHT22;46892;45.668;11.756;2022-11-12T03:00:24;8.40;82.70
55313;DHT22;46892;45.668;11.756;2022-11-12T03:02:49;8.40;83.50
55313;DHT22;46892;45.668;11.756;2022-11-12T03:05:29;8.30;83.20
55313;DHT22;46892;45.668;11.756;2022-11-12T03:07:57;8.30;83.00
55313;DHT22;46892;45.668;11.756;2022-11-12T03:10:24;8.30;83.30
55313;DHT22;46892;45.668;11.756;2022-11-12T03:12:50;8.20;83.60
55313;DHT22;46892;45.668;11.756;2022-11-12T03:15:15;8.20;83.30
55313;DHT22;46892;45.668;11.756;2022-11-12T03:17:42;8.10;83.20
55313;DHT22;46892;45.668;11.756;2022-11-12T03:20:12;8.20;83.30
55313;DHT22;46892;45.668;11.756;2022-11-12T03:22:38;8.20;83.40
55313;DHT22;46892;45.668;11.756;2022-11-12T03:25:05;8.00;83.30
55313;DHT22;46892;45.668;11.756;2022-11-12T03:27:31;8.10;83.30
55313;DHT22;46892;45.668;11.756;2022-11-12T03:29:56;8.10;83.50
55313;DHT22;46892;45.668;11.756;2022-11-12T03:32:22;8.00;84.00
55313;DHT22;46892;45.668;11.756;2022-11-12T03:34:48;8.00;83.00
55313;DHT22;46892;45.668;11.756;2022-11-12T03:37:14;7.80;83.20
55313;DHT22;46892;45.668;11.756;2022-11-12T03:39:39;7.80;83.80
55313;DHT22;46892;45.668;11.756;2022-11-12T03:42:05;7.90;84.70
55313;DHT22;46892;45.668;11.756;2022-11-12T03:44:31;7.90;83.30
55313;DHT22;46892;45.668;11.756;2022-11-12T03:46:56;7.80;83.60
55313;DHT22;46892;45.668;11.756;2022-11-12T03:49:22;7.90;85.10
55313;DHT22;46892;45.668;11.756;2022-11-12T03:51:47;7.90;84.10
55313;DHT22;46892;45.668;11.756;2022-11-12T03:54:13;7.90;84.80
55313;DHT22;46892;45.668;11.756;2022-11-12T03:56:39;8.00;84.10
55313;DHT22;46892;45.668;11.756;2022-11-12T03:59:05;8.10;83.90
55313;DHT22;46892;45.668;11.756;2022-11-12T04:01:30;8.10;83.90
55313;DHT22;46892;45.668;11.756;2022-11-12T04:06:22;8.20;83.70
55313;DHT22;46892;45.668;11.756;2022-11-12T04:09:07;8.20;84.20
55313;DHT22;46892;45.668;11.756;2022-11-12T04:11:32;8.10;84.40
55313;DHT22;46892;45.668;11.756;2022-11-12T04:13:58;8.00;84.60
55313;DHT22;46892;45.668;11.756;2022-11-12T04:16:25;8.00;85.10
55313;DHT22;46892;45.668;11.756;2022-11-12T04:19:12;8.00;85.40
55313;DHT22;46892;45.668;11.756;2022-11-12T04:22:05;8.10;85.00
55313;DHT22;46892;45.668;11.756;2022-11-12T04:24:34;8.10;85.20
55313;DHT22;46892;45.668;11.756;2022-11-12T04:27:24;8.00;84.90
55313;DHT22;46892;45.668;11.756;2022-11-12T04:29:50;8.00;84.40
55313;DHT22;46892;45.668;11.756;2022-11-12T04:32:49;8.10;84.20
55313;DHT22;46892;45.668;11.756;2022-11-12T04:35:15;8.30;84.20
55313;DHT22;46892;45.668;11.756;2022-11-12T04:37:41;8.30;84.20
55313;DHT22;46892;45.668;11.756;2022-11-12T04:40:18;8.30;84.30
55313;DHT22;46892;45.668;11.756;2022-11-12T04:43:04;8.30;84.20
55313;DHT22;46892;45.668;11.756;2022-11-12T04:45:50;8.30;84.40
55313;DHT22;46892;45.668;11.756;2022-11-12T04:48:16;8.30;83.60
55313;DHT22;46892;45.668;11.756;2022-11-12T04:50:44;8.20;84.00
55313;DHT22;46892;45.668;11.756;2022-11-12T04:53:11;8.20;84.30
55313;DHT22;46892;45.668;11.756;2022-11-12T04:55:36;8.20;84.10
55313;DHT22;46892;45.668;11.756;2022-11-12T04:58:02;8.10;84.50
55313;DHT22;46892;45.668;11.756;2022-11-12T05:00:28;8.20;84.80
55313;DHT22;46892;45.668;11.756;2022-11-12T05:02:54;8.20;84.90
55313;DHT22;46892;45.668;11.756;2022-11-12T05:05:19;8.30;85.10
55313;DHT22;46892;45.668;11.756;2022-11-12T05:07:45;8.50;84.50
55313;DHT22;46892;45.668;11.756;2022-11-12T05:10:11;8.50;83.90
55313;DHT22;46892;45.668;11.756;2022-11-12T05:12:36;8.60;83.20
55313;DHT22;46892;45.668;11.756;2022-11-12T05:15:03;8.60;83.40
55313;DHT22;46892;45.668;11.756;2022-11-12T05:17:29;8.50;83.70
55313;DHT22;46892;45.668;11.756;2022-11-12T05:19:54;8.50;83.20
55313;DHT22;46892;45.668;11.756;2022-11-12T05:22:20;8.50;83.00
55313;DHT22;46892;45.668;11.756;2022-11-12T05:24:45;8.40;83.30
55313;DHT22;46892;45.668;11.756;2022-11-12T05:27:16;8.50;83.20
55313;DHT22;46892;45.668;11.756;2022-11-12T05:29:42;8.50;83.10
55313;DHT22;46892;45.668;11.756;2022-11-12T05:32:11;8.40;83.50
55313;DHT22;46892;45.668;11.756;2022-11-12T05:34:38;8.40;83.10
55313;DHT22;46892;45.668;11.756;2022-11-12T05:37:04;8.40;83.10
55313;DHT22;46892;45.668;11.756;2022-11-12T05:39:30;8.40;83.00
55313;DHT22;46892;45.668;11.756;2022-11-12T05:41:56;8.40;83.10
55313;DHT22;46892;45.668;11.756;2022-11-12T05:44:22;8.40;83.00
55313;DHT22;46892;45.668;11.756;2022-11-12T05:46:48;8.40;84.50
55313;DHT22;46892;45.668;11.756;2022-11-12T05:49:17;8.50;84.50
55313;DHT22;46892;45.668;11.756;2022-11-12T05:51:43;8.60;84.40
55313;DHT22;46892;45.668;11.756;2022-11-12T05:54:09;8.60;83.90
55313;DHT22;46892;45.668;11.756;2022-11-12T05:56:35;8.50;83.70
55313;DHT22;46892;45.668;11.756;2022-11-12T05:59:02;8.60;82.90
55313;DHT22;46892;45.668;11.756;2022-11-12T06:01:29;8.50;83.70
55313;DHT22;46892;45.668;11.756;2022-11-12T06:03:55;8.50;84.40
55313;DHT22;46892;45.668;11.756;2022-11-12T06:06:21;8.60;83.80
55313;DHT22;46892;45.668;11.756;2022-11-12T06:08:47;8.70;83.80
55313;DHT22;46892;45.668;11.756;2022-11-12T06:11:12;8.80;83.70
55313;DHT22;46892;45.668;11.756;2022-11-12T06:13:38;8.80;82.40
55313;DHT22;46892;45.668;11.756;2022-11-12T06:16:04;8.80;82.10
55313;DHT22;46892;45.668;11.756;2022-11-12T06:18:29;8.70;82.60
55313;DHT22;46892;45.668;11.756;2022-11-12T06:21:06;8.70;82.80
55313;DHT22;46892;45.668;11.756;2022-11-12T06:23:57;8.60;83.60
55313;DHT22;46892;45.668;11.756;2022-11-12T06:26:24;8.50;83.30
55313;DHT22;46892;45.668;11.756;2022-11-12T06:28:50;8.50;83.70
55313;DHT22;46892;45.668;11.756;2022-11-12T06:31:17;8.40;84.40
55313;DHT22;46892;45.668;11.756;2022-11-12T06:33:43;8.50;84.10
55313;DHT22;46892;45.668;11.756;2022-11-12T06:36:11;8.50;83.90
55313;DHT22;46892;45.668;11.756;2022-11-12T06:38:38;8.50;84.10
55313;DHT22;46892;45.668;11.756;2022-11-12T06:41:05;8.50;85.20
55313;DHT22;46892;45.668;11.756;2022-11-12T06:43:32;8.60;84.70
55313;DHT22;46892;45.668;11.756;2022-11-12T06:46:00;8.50;83.80
55313;DHT22;46892;45.668;11.756;2022-11-12T06:48:27;8.50;84.20
55313;DHT22;46892;45.668;11.756;2022-11-12T06:50:53;8.50;84.80
55313;DHT22;46892;45.668;11.756;2022-11-12T06:53:19;8.60;85.10
55313;DHT22;46892;45.668;11.756;2022-11-12T06:55:44;8.60;84.50
55313;DHT22;46892;45.668;11.756;2022-11-12T06:58:10;8.70;84.00
55313;DHT22;46892;45.668;11.756;2022-11-12T07:00:36;8.70;83.30
55313;DHT22;46892;45.668;11.756;2022-11-12T07:03:06;8.70;83.70
55313;DHT22;46892;45.668;11.756;2022-11-12T07:05:35;8.70;84.30
55313;DHT22;46892;45.668;11.756;2022-11-12T07:08:01;8.70;84.30
55313;DHT22;46892;45.668;11.756;2022-11-12T07:10:27;8.70;84.20
55313;DHT22;46892;45.668;11.756;2022-11-12T07:12:53;8.80;84.10
55313;DHT22;46892;45.668;11.756;2022-11-12T07:15:19;8.80;85.10
55313;DHT22;46892;45.668;11.756;2022-11-12T07:17:45;8.80;85.40
55313;DHT22;46892;45.668;11.756;2022-11-12T07:20:11;8.80;85.10
55313;DHT22;46892;45.668;11.756;2022-11-12T07:22:37;8.80;85.30
55313;DHT22;46892;45.668;11.756;2022-11-12T07:25:03;9.00;85.90
55313;DHT22;46892;45.668;11.756;2022-11-12T07:27:29;9.00;85.80
55313;DHT22;46892;45.668;11.756;2022-11-12T07:29:55;9.10;86.10
55313;DHT22;46892;45.668;11.756;2022-11-12T07:32:21;9.20;85.70
55313;DHT22;46892;45.668;11.756;2022-11-12T07:34:47;9.30;85.50
55313;DHT22;46892;45.668;11.756;2022-11-12T07:37:12;9.30;85.50
55313;DHT22;46892;45.668;11.756;2022-11-12T07:39:38;9.30;85.60
55313;DHT22;46892;45.668;11.756;2022-11-12T07:42:04;9.30;86.30
55313;DHT22;46892;45.668;11.756;2022-11-12T07:44:29;9.30;86.10
55313;DHT22;46892;45.668;11.756;2022-11-12T07:46:55;9.30;86.20
55313;DHT22;46892;45.668;11.756;2022-11-12T07:49:20;9.40;86.30
55313;DHT22;46892;45.668;11.756;2022-11-12T07:51:46;9.50;86.80
55313;DHT22;46892;45.668;11.756;2022-11-12T07:54:12;9.60;86.90
55313;DHT22;46892;45.668;11.756;2022-11-12T07:56:38;9.80;86.10
55313;DHT22;46892;45.668;11.756;2022-11-12T07:59:03;10.00;86.00
55313;DHT22;46892;45.668;11.756;2022-11-12T08:01:40;10.00;85.70
55313;DHT22;46892;45.668;11.756;2022-11-12T08:04:08;10.10;86.60
55313;DHT22;46892;45.668;11.756;2022-11-12T08:06:34;10.20;86.30
55313;DHT22;46892;45.668;11.756;2022-11-12T08:09:03;10.30;86.80
55313;DHT22;46892;45.668;11.756;2022-11-12T08:11:30;10.40;85.90
55313;DHT22;46892;45.668;11.756;2022-11-12T08:13:56;10.50;84.90
55313;DHT22;46892;45.668;11.756;2022-11-12T08:16:22;10.50;84.70
55313;DHT22;46892;45.668;11.756;2022-11-12T08:18:47;10.50;86.00
55313;DHT22;46892;45.668;11.756;2022-11-12T08:21:15;10.50;85.70
55313;DHT22;46892;45.668;11.756;2022-11-12T08:23:41;10.70;85.60
55313;DHT22;46892;45.668;11.756;2022-11-12T08:26:10;10.70;84.90
55313;DHT22;46892;45.668;11.756;2022-11-12T08:28:36;10.80;85.00
55313;DHT22;46892;45.668;11.756;2022-11-12T08:31:03;10.80;84.50
55313;DHT22;46892;45.668;11.756;2022-11-12T08:33:31;10.80;83.80
55313;DHT22;46892;45.668;11.756;2022-11-12T08:35:57;10.90;84.40
55313;DHT22;46892;45.668;11.756;2022-11-12T08:38:22;11.00;82.90
55313;DHT22;46892;45.668;11.756;2022-11-12T08:40:48;11.00;82.70
55313;DHT22;46892;45.668;11.756;2022-11-12T08:43:13;11.00;83.60
55313;DHT22;46892;45.668;11.756;2022-11-12T08:45:40;11.00;84.80
55313;DHT22;46892;45.668;11.756;2022-11-12T08:48:09;11.00;84.70
55313;DHT22;46892;45.668;11.756;2022-11-12T08:50:35;11.10;85.30
55313;DHT22;46892;45.668;11.756;2022-11-12T08:53:10;11.20;83.80
55313;DHT22;46892;45.668;11.756;2022-11-12T08:55:36;11.20;83.80
55313;DHT22;46892;45.668;11.756;2022-11-12T08:58:02;11.30;82.70
55313;DHT22;46892;45.668;11.756;2022-11-12T09:00:34;11.30;82.70
55313;DHT22;46892;45.668;11.756;2022-11-12T09:03:01;11.40;82.20
55313;DHT22;46892;45.668;11.756;2022-11-12T09:05:27;11.50;82.20
55313;DHT22;46892;45.668;11.756;2022-11-12T09:08:00;11.50;82.30
55313;DHT22;46892;45.668;11.756;2022-11-12T09:10:26;11.50;82.90
55313;DHT22;46892;45.668;11.756;2022-11-12T09:12:52;11.50;82.80
55313;DHT22;46892;45.668;11.756;2022-11-12T09:15:19;11.60;83.10
55313;DHT22;46892;45.668;11.756;2022-11-12T09:17:44;11.70;83.20
55313;DHT22;46892;45.668;11.756;2022-11-12T09:20:10;11.70;83.60
55313;DHT22;46892;45.668;11.756;2022-11-12T09:22:36;11.90;84.60
55313;DHT22;46892;45.668;11.756;2022-11-12T09:25:02;11.90;83.70
55313;DHT22;46892;45.668;11.756;2022-11-12T09:27:28;12.10;83.50
55313;DHT22;46892;45.668;11.756;2022-11-12T09:29:54;12.30;84.00
55313;DHT22;46892;45.668;11.756;2022-11-12T09:32:20;12.30;85.60
55313;DHT22;46892;45.668;11.756;2022-11-12T09:34:46;12.40;85.50
55313;DHT22;46892;45.668;11.756;2022-11-12T09:37:12;12.50;86.00
55313;DHT22;46892;45.668;11.756;2022-11-12T09:39:37;12.70;84.80
55313;DHT22;46892;45.668;11.756;2022-11-12T09:42:08;12.80;84.50
55313;DHT22;46892;45.668;11.756;2022-11-12T09:44:38;12.80;84.30
55313;DHT22;46892;45.668;11.756;2022-11-12T09:47:19;12.90;83.70
55313;DHT22;46892;45.668;11.756;2022-11-12T09:52:36;13.00;83.80
55313;DHT22;46892;45.668;11.756;2022-11-12T09:55:15;13.10;83.80
55313;DHT22;46892;45.668;11.756;2022-11-12T09:57:41;13.20;82.80
55313;DHT22;46892;45.668;11.756;2022-11-12T10:00:19;13.30;84.10
55313;DHT22;46892;45.668;11.756;2022-11-12T10:03:02;13.30;83.00
55313;DHT22;46892;45.668;11.756;2022-11-12T10:22:03;13.80;83.00
55313;DHT22;46892;45.668;11.756;2022-11-12T10:24:33;13.80;83.60
55313;DHT22;46892;45.668;11.756;2022-11-12T10:26:59;13.80;81.60
55313;DHT22;46892;45.668;11.756;2022-11-12T10:29:32;13.90;81.00
55313;DHT22;46892;45.668;11.756;2022-11-12T10:32:01;13.90;80.50
55313;DHT22;46892;45.668;11.756;2022-11-12T10:34:28;13.90;80.80
55313;DHT22;46892;45.668;11.756;2022-11-12T10:36:59;14.20;77.70
55313;DHT22;46892;45.668;11.756;2022-11-12T10:39:45;14.30;78.10
55313;DHT22;46892;45.668;11.756;2022-11-12T10:42:19;14.30;77.90
55313;DHT22;46892;45.668;11.756;2022-11-12T10:44:45;14.30;77.70
55313;DHT22;46892;45.668;11.756;2022-11-12T10:47:18;14.30;78.40
55313;DHT22;46892;45.668;11.756;2022-11-12T10:50:14;14.40;80.50
55313;DHT22;46892;45.668;11.756;2022-11-12T10:52:52;14.40;81.00
55313;DHT22;46892;45.668;11.756;2022-11-12T10:55:21;14.50;81.30
55313;DHT22;46892;45.668;11.756;2022-11-12T10:58:02;14.50;80.70
55313;DHT22;46892;45.668;11.756;2022-11-12T11:00:28;14.60;80.50
55313;DHT22;46892;45.668;11.756;2022-11-12T11:02:54;14.60;80.40
55313;DHT22;46892;45.668;11.756;2022-11-12T11:05:35;14.70;80.20
55313;DHT22;46892;45.668;11.756;2022-11-12T11:08:02;14.70;79.90
55313;DHT22;46892;45.668;11.756;2022-11-12T11:10:35;14.70;79.70
55313;DHT22;46892;45.668;11.756;2022-11-12T11:16:01;14.80;79.80
55313;DHT22;46892;45.668;11.756;2022-11-12T11:18:28;14.70;79.40
55313;DHT22;46892;45.668;11.756;2022-11-12T11:23:56;14.80;79.80
55313;DHT22;46892;45.668;11.756;2022-11-12T11:32:10;14.70;80.40
55313;DHT22;46892;45.668;11.756;2022-11-12T11:37:27;14.60;80.40
55313;DHT22;46892;45.668;11.756;2022-11-12T11:40:02;14.60;80.70
55313;DHT22;46892;45.668;11.756;2022-11-12T11:42:49;14.60;80.50
55313;DHT22;46892;45.668;11.756;2022-11-12T11:45:18;14.60;81.30
55313;DHT22;46892;45.668;11.756;2022-11-12T11:48:28;14.70;81.00
55313;DHT22;46892;45.668;11.756;2022-11-12T11:53:58;14.70;80.50
55313;DHT22;46892;45.668;11.756;2022-11-12T11:56:42;14.70;80.60
55313;DHT22;46892;45.668;11.756;2022-11-12T11:59:26;14.70;80.60
55313;DHT22;46892;45.668;11.756;2022-11-12T12:02:10;14.60;80.00
55313;DHT22;46892;45.668;11.756;2022-11-12T12:18:07;14.80;80.50
55313;DHT22;46892;45.668;11.756;2022-11-12T12:20:36;14.80;80.80
55313;DHT22;46892;45.668;11.756;2022-11-12T12:25:40;14.80;80.60
55313;DHT22;46892;45.668;11.756;2022-11-12T12:28:13;14.90;80.50
55313;DHT22;46892;45.668;11.756;2022-11-12T12:30:44;15.00;80.00
55313;DHT22;46892;45.668;11.756;2022-11-12T12:33:31;15.00;79.60
55313;DHT22;46892;45.668;11.756;2022-11-12T12:36:10;15.00;79.90
55313;DHT22;46892;45.668;11.756;2022-11-12T12:38:39;15.00;80.00
55313;DHT22;46892;45.668;11.756;2022-11-12T12:44:02;14.90;79.30
55313;DHT22;46892;45.668;11.756;2022-11-12T12:46:31;14.90;79.00
55313;DHT22;46892;45.668;11.756;2022-11-12T12:49:02;14.90;79.10
55313;DHT22;46892;45.668;11.756;2022-11-12T12:51:31;14.90;79.10
55313;DHT22;46892;45.668;11.756;2022-11-12T12:53:58;14.90;79.20
55313;DHT22;46892;45.668;11.756;2022-11-12T12:58:56;14.90;79.20
55313;DHT22;46892;45.668;11.756;2022-11-12T13:03:59;14.90;79.30
55313;DHT22;46892;45.668;11.756;2022-11-12T13:09:19;15.00;79.80
55313;DHT22;46892;45.668;11.756;2022-11-12T13:11:55;14.90;79.60
55313;DHT22;46892;45.668;11.756;2022-11-12T13:19:28;15.00;79.40
55313;DHT22;46892;45.668;11.756;2022-11-12T13:30:07;14.90;79.70
55313;DHT22;46892;45.668;11.756;2022-11-12T13:35:31;14.90;80.30
55313;DHT22;46892;45.668;11.756;2022-11-12T13:53:42;14.80;81.20
55313;DHT22;46892;45.668;11.756;2022-11-12T13:56:09;14.80;81.20
55313;DHT22;46892;45.668;11.756;2022-11-12T13:58:36;14.80;81.30
55313;DHT22;46892;45.668;11.756;2022-11-12T14:01:05;14.80;81.40
55313;DHT22;46892;45.668;11.756;2022-11-12T14:03:46;14.80;81.90
55313;DHT22;46892;45.668;11.756;2022-11-12T14:19:25;14.80;82.40
55313;DHT22;46892;45.668;11.756;2022-11-12T14:22:20;14.70;82.70
55313;DHT22;46892;45.668;11.756;2022-11-12T14:24:53;14.60;82.90
55313;DHT22;46892;45.668;11.756;2022-11-12T14:27:31;14.70;82.90
55313;DHT22;46892;45.668;11.756;2022-11-12T14:30:27;14.50;83.40
55313;DHT22;46892;45.668;11.756;2022-11-12T14:33:06;14.50;83.50
55313;DHT22;46892;45.668;11.756;2022-11-12T14:38:11;14.30;83.80
55313;DHT22;46892;45.668;11.756;2022-11-12T14:43:43;14.30;83.90
55313;DHT22;46892;45.668;11.756;2022-11-12T14:46:34;14.20;83.90
55313;DHT22;46892;45.668;11.756;2022-11-12T14:49:20;14.10;84.00
55313;DHT22;46892;45.668;11.756;2022-11-12T14:51:49;14.10;83.90
55313;DHT22;46892;45.668;11.756;2022-11-12T14:54:35;14.00;83.90
55313;DHT22;46892;45.668;11.756;2022-11-12T14:57:03;13.90;84.00
55313;DHT22;46892;45.668;11.756;2022-11-12T14:59:30;13.90;84.00
55313;DHT22;46892;45.668;11.756;2022-11-12T15:04:41;13.80;84.10
55313;DHT22;46892;45.668;11.756;2022-11-12T15:09:53;13.80;84.20
55313;DHT22;46892;45.668;11.756;2022-11-12T15:12:24;13.70;83.90
55313;DHT22;46892;45.668;11.756;2022-11-12T15:14:52;13.80;83.50
55313;DHT22;46892;45.668;11.756;2022-11-12T15:17:31;13.90;83.00
55313;DHT22;46892;45.668;11.756;2022-11-12T15:20:24;13.90;82.70
55313;DHT22;46892;45.668;11.756;2022-11-12T15:22:52;13.80;83.00
55313;DHT22;46892;45.668;11.756;2022-11-12T15:25:29;13.70;83.10
55313;DHT22;46892;45.668;11.756;2022-11-12T15:27:55;13.60;83.40
55313;DHT22;46892;45.668;11.756;2022-11-12T15:35:56;13.50;84.20
55313;DHT22;46892;45.668;11.756;2022-11-12T15:40:53;13.30;84.80
55313;DHT22;46892;45.668;11.756;2022-11-12T15:43:25;13.30;85.10
55313;DHT22;46892;45.668;11.756;2022-11-12T15:45:53;13.30;85.10
55313;DHT22;46892;45.668;11.756;2022-11-12T15:48:19;13.30;84.60
55313;DHT22;46892;45.668;11.756;2022-11-12T15:50:45;13.30;84.20
55313;DHT22;46892;45.668;11.756;2022-11-12T15:53:11;13.30;84.10
55313;DHT22;46892;45.668;11.756;2022-11-12T15:55:39;13.30;84.00
55313;DHT22;46892;45.668;11.756;2022-11-12T15:58:06;13.30;83.90
55313;DHT22;46892;45.668;11.756;2022-11-12T16:00:37;13.30;83.70
55313;DHT22;46892;45.668;11.756;2022-11-12T16:05:37;13.20;83.90
55313;DHT22;46892;45.668;11.756;2022-11-12T16:08:03;13.00;84.10
55313;DHT22;46892;45.668;11.756;2022-11-12T16:10:28;12.90;84.20
55313;DHT22;46892;45.668;11.756;2022-11-12T16:12:57;12.80;84.70
55313;DHT22;46892;45.668;11.756;2022-11-12T16:15:24;12.90;84.90
55313;DHT22;46892;45.668;11.756;2022-11-12T16:17:51;12.90;85.00
55313;DHT22;46892;45.668;11.756;2022-11-12T16:20:28;13.00;85.20
55313;DHT22;46892;45.668;11.756;2022-11-12T16:22:55;13.00;84.90
55313;DHT22;46892;45.668;11.756;2022-11-12T16:25:21;13.00;85.00
55313;DHT22;46892;45.668;11.756;2022-11-12T16:27:47;13.00;85.30
55313;DHT22;46892;45.668;11.756;2022-11-12T16:30:16;13.00;85.60
55313;DHT22;46892;45.668;11.756;2022-11-12T16:32:42;12.90;85.60
55313;DHT22;46892;45.668;11.756;2022-11-12T16:35:08;12.80;85.90
55313;DHT22;46892;45.668;11.756;2022-11-12T16:37:34;12.80;86.00
55313;DHT22;46892;45.668;11.756;2022-11-12T16:40:04;12.80;85.90
55313;DHT22;46892;45.668;11.756;2022-11-12T16:42:29;12.70;85.50
55313;DHT22;46892;45.668;11.756;2022-11-12T16:44:55;12.70;85.70
55313;DHT22;46892;45.668;11.756;2022-11-12T16:47:21;12.70;85.90
55313;DHT22;46892;45.668;11.756;2022-11-12T16:49:46;12.70;86.20
55313;DHT22;46892;45.668;11.756;2022-11-12T16:52:12;12.60;86.20
55313;DHT22;46892;45.668;11.756;2022-11-12T16:54:37;12.50;86.60
55313;DHT22;46892;45.668;11.756;2022-11-12T16:57:03;12.40;86.40
55313;DHT22;46892;45.668;11.756;2022-11-12T16:59:29;12.30;85.90
55313;DHT22;46892;45.668;11.756;2022-11-12T17:01:55;12.30;86.40
55313;DHT22;46892;45.668;11.756;2022-11-12T17:04:23;12.30;86.40
55313;DHT22;46892;45.668;11.756;2022-11-12T17:06:48;12.20;86.60
55313;DHT22;46892;45.668;11.756;2022-11-12T17:09:15;12.00;86.00
55313;DHT22;46892;45.668;11.756;2022-11-12T17:11:41;12.00;86.40
55313;DHT22;46892;45.668;11.756;2022-11-12T17:14:07;12.00;86.50
55313;DHT22;46892;45.668;11.756;2022-11-12T17:16:33;11.90;86.00
55313;DHT22;46892;45.668;11.756;2022-11-12T17:18:59;11.80;86.10
55313;DHT22;46892;45.668;11.756;2022-11-12T17:21:26;11.80;86.30
55313;DHT22;46892;45.668;11.756;2022-11-12T17:23:53;12.00;86.30
55313;DHT22;46892;45.668;11.756;2022-11-12T17:26:20;11.80;86.10
55313;DHT22;46892;45.668;11.756;2022-11-12T17:28:47;11.80;86.60
55313;DHT22;46892;45.668;11.756;2022-11-12T17:31:17;11.80;86.60
55313;DHT22;46892;45.668;11.756;2022-11-12T17:33:48;11.70;86.10
55313;DHT22;46892;45.668;11.756;2022-11-12T17:36:14;11.70;86.10
55313;DHT22;46892;45.668;11.756;2022-11-12T17:38:41;11.70;86.10
55313;DHT22;46892;45.668;11.756;2022-11-12T17:41:07;11.50;85.60
55313;DHT22;46892;45.668;11.756;2022-11-12T17:43:34;11.40;86.20
55313;DHT22;46892;45.668;11.756;2022-11-12T17:46:01;11.30;86.70